createdAt,value
2023-05-12T00:01:21.564Z,44.01
2023-05-12T00:02:53.120Z,38.09
2023-05-12T00:04:24.573Z,42.22
2023-05-12T00:05:56.122Z,39.77
2023-05-12T00:07:27.550Z,42.33
2023-05-12T00:08:58.998Z,43.67
2023-05-12T00:10:30.365Z,42.70
2023-05-12T00:12:02.367Z,39.33
2023-05-12T00:13:33.750Z,42.63
2023-05-12T00:15:05.383Z,43.55
2023-05-12T00:16:36.880Z,39.11
2023-05-12T00:18:08.484Z,41.31
2023-05-12T00:19:39.854Z,42.87
2023-05-12T00:21:12.055Z,49.90
2023-05-12T00:22:43.475Z,46.64
2023-05-12T00:24:14.920Z,45.04
2023-05-12T00:25:46.381Z,47.04
2023-05-12T00:27:17.868Z,42.70
2023-05-12T00:28:49.298Z,45.12
2023-05-12T00:30:20.806Z,42.87
2023-05-12T00:31:52.408Z,42.04
2023-05-12T00:33:23.855Z,43.18
2023-05-12T00:34:55.294Z,45.67
2023-05-12T00:36:26.897Z,44.92
2023-05-12T00:37:58.541Z,42.62
2023-05-12T00:39:30.132Z,38.69
2023-05-12T00:41:01.493Z,41.87
2023-05-12T00:42:32.925Z,38.05
2023-05-12T00:44:06.975Z,39.54
2023-05-12T00:45:39.733Z,38.12
2023-05-12T00:47:16.660Z,39.53
2023-05-12T00:48:48.250Z,39.54
2023-05-12T00:50:19.992Z,38.03
2023-05-12T00:51:51.673Z,39.60
2023-05-12T00:53:23.072Z,38.25
2023-05-12T00:54:54.507Z,33.78
2023-05-12T00:56:25.986Z,33.83
2023-05-12T00:57:57.699Z,38.09
2023-05-12T00:59:29.068Z,34.07
2023-05-12T01:01:00.625Z,29.37
2023-05-12T01:02:32.131Z,31.50
2023-05-12T01:04:03.540Z,29.46
2023-05-12T01:05:35.031Z,26.36
2023-05-12T01:07:06.611Z,23.90
2023-05-12T01:08:37.934Z,18.26
2023-05-12T01:10:09.213Z,16.28
2023-05-12T01:11:40.847Z,19.49
2023-05-12T01:13:12.254Z,17.40
2023-05-12T01:14:44.385Z,16.30
2023-05-12T01:16:15.841Z,15.06
2023-05-12T01:17:47.254Z,14.41
2023-05-12T01:19:18.715Z,12.91
2023-05-12T01:20:50.178Z,11.79
2023-05-12T01:22:21.872Z,10.60
2023-05-12T01:23:53.191Z,12.87
2023-05-12T01:25:24.690Z,13.16
2023-05-12T01:26:56.109Z,10.99
2023-05-12T01:28:27.734Z,11.36
2023-05-12T01:29:59.185Z,8.90
2023-05-12T01:31:30.630Z,9.98
2023-05-12T01:33:02.237Z,8.22
2023-05-12T01:34:33.615Z,9.80
2023-05-12T01:36:06.108Z,13.64
2023-05-12T01:37:37.428Z,9.38
2023-05-12T01:39:08.875Z,10.40
2023-05-12T01:40:40.311Z,11.53
2023-05-12T01:42:11.729Z,10.14
2023-05-12T01:43:43.253Z,9.71
2023-05-12T01:45:14.914Z,9.01
2023-05-12T01:46:47.456Z,8.81
2023-05-12T01:48:18.848Z,9.60
2023-05-12T01:49:50.355Z,10.47
2023-05-12T01:51:21.859Z,12.09
2023-05-12T01:52:53.255Z,12.13
2023-05-12T01:54:24.629Z,10.09
2023-05-12T01:55:55.943Z,11.64
2023-05-12T01:57:27.631Z,10.78
2023-05-12T01:58:59.052Z,13.14
2023-05-12T02:00:30.507Z,12.52
2023-05-12T02:02:01.956Z,13.32
2023-05-12T02:03:33.560Z,15.32
2023-05-12T02:05:05.190Z,12.54
2023-05-12T02:06:36.526Z,13.91
2023-05-12T02:08:07.998Z,13.50
2023-05-12T02:09:39.417Z,13.06
2023-05-12T02:11:11.113Z,14.22
2023-05-12T02:12:42.513Z,14.27
2023-05-12T02:14:13.855Z,13.71
2023-05-12T02:15:45.424Z,15.89
2023-05-12T02:17:16.930Z,15.54
2023-05-12T02:18:48.453Z,16.11
2023-05-12T02:20:20.155Z,17.75
2023-05-12T02:21:51.737Z,18.91
2023-05-12T02:23:23.217Z,18.74
2023-05-12T02:24:59.687Z,16.54
2023-05-12T02:26:31.040Z,19.20
2023-05-12T02:28:02.639Z,20.39
2023-05-12T02:29:34.027Z,18.05
2023-05-12T02:31:05.306Z,19.42
2023-05-12T02:32:36.629Z,24.82
2023-05-12T02:34:08.204Z,24.10
2023-05-12T02:35:39.709Z,25.44
2023-05-12T02:37:11.061Z,21.15
2023-05-12T02:38:42.574Z,20.37
2023-05-12T02:40:14.105Z,20.65
2023-05-12T02:41:45.814Z,19.99
2023-05-12T02:43:17.213Z,18.43
2023-05-12T02:44:48.722Z,17.00
2023-05-12T02:46:20.163Z,17.27
2023-05-12T02:47:51.694Z,17.48
2023-05-12T02:49:23.139Z,16.24
2023-05-12T02:50:54.630Z,17.19
2023-05-12T02:52:26.021Z,15.53
2023-05-12T02:53:57.353Z,15.17
2023-05-12T02:55:28.722Z,16.54
2023-05-12T02:57:00.134Z,18.29
2023-05-12T02:58:31.513Z,18.20
2023-05-12T03:00:02.779Z,20.00
2023-05-12T03:01:34.144Z,18.85
2023-05-12T03:03:05.647Z,22.75
2023-05-12T03:04:37.005Z,22.41
2023-05-12T03:06:08.823Z,21.91
2023-05-12T03:07:40.365Z,21.36
2023-05-12T03:09:11.621Z,22.00
2023-05-12T03:10:42.925Z,21.39
2023-05-12T03:12:14.206Z,19.21
2023-05-12T03:13:45.608Z,20.80
2023-05-12T03:15:17.170Z,19.20
2023-05-12T03:16:48.863Z,19.19
2023-05-12T03:18:20.267Z,20.97
2023-05-12T03:19:51.595Z,20.91
2023-05-12T03:21:23.086Z,22.05
2023-05-12T03:22:54.984Z,24.59
2023-05-12T03:24:26.361Z,22.78
2023-05-12T03:25:57.692Z,23.21
2023-05-12T03:27:29.027Z,22.29
2023-05-12T03:29:00.531Z,20.34
2023-05-12T03:30:31.911Z,22.58
2023-05-12T03:32:03.733Z,21.90
2023-05-12T03:33:35.345Z,24.58
2023-05-12T03:35:06.698Z,23.05
2023-05-12T03:36:38.106Z,22.76
2023-05-12T03:38:09.388Z,23.65
2023-05-12T03:39:40.714Z,23.85
2023-05-12T03:41:12.625Z,22.82
2023-05-12T03:42:43.933Z,22.93
2023-05-12T03:44:15.318Z,20.93
2023-05-12T03:45:46.637Z,21.10
2023-05-12T03:47:18.150Z,19.54
2023-05-12T03:48:49.565Z,19.21
2023-05-12T03:50:21.195Z,18.74
2023-05-12T03:51:52.648Z,18.10
2023-05-12T03:53:24.040Z,18.87
2023-05-12T03:54:55.431Z,18.44
2023-05-12T03:56:26.710Z,18.60
2023-05-12T03:57:58.021Z,17.96
2023-05-12T03:59:29.445Z,18.68
2023-05-12T04:01:01.138Z,19.97
2023-05-12T04:02:32.883Z,19.15
2023-05-12T04:04:04.413Z,18.61
2023-05-12T04:05:35.798Z,15.89
2023-05-12T04:07:07.138Z,17.82
2023-05-12T04:10:10.769Z,15.51
2023-05-12T04:11:42.271Z,16.92
2023-05-12T04:13:13.758Z,16.30
2023-05-12T04:14:45.368Z,18.04
2023-05-12T04:16:16.886Z,17.62
2023-05-12T04:17:48.384Z,17.17
2023-05-12T04:19:20.025Z,15.06
2023-05-12T04:20:51.382Z,17.23
2023-05-12T04:22:24.831Z,16.23
2023-05-12T04:26:28.386Z,14.28
2023-05-12T04:27:59.841Z,14.58
2023-05-12T04:29:31.432Z,14.24
2023-05-12T04:31:02.789Z,14.65
2023-05-12T04:32:34.254Z,15.14
2023-05-12T04:34:48.068Z,12.34
2023-05-12T04:36:19.432Z,12.66
2023-05-12T04:37:50.737Z,11.41
2023-05-12T04:39:22.316Z,13.40
2023-05-12T04:41:18.923Z,12.16
2023-05-12T04:42:50.284Z,14.34
2023-05-12T04:44:21.674Z,12.90
2023-05-12T04:46:14.791Z,13.85
2023-05-12T04:47:46.388Z,11.65
2023-05-12T04:49:17.778Z,11.73
2023-05-12T04:50:49.305Z,11.46
2023-05-12T04:52:20.981Z,11.69
2023-05-12T04:53:52.320Z,11.24
2023-05-12T04:55:23.689Z,9.36
2023-05-12T04:57:05.257Z,10.44
2023-05-12T04:58:36.704Z,11.73
2023-05-12T05:00:08.260Z,11.66
2023-05-12T05:01:39.999Z,8.40
2023-05-12T05:03:11.696Z,9.13
2023-05-12T05:04:43.865Z,9.27
2023-05-12T05:06:15.269Z,8.14
2023-05-12T05:07:46.591Z,7.56
2023-05-12T05:09:36.281Z,7.56
2023-05-12T05:11:22.898Z,9.44
2023-05-12T05:12:54.762Z,8.53
2023-05-12T05:14:26.293Z,9.17
2023-05-12T05:15:57.634Z,11.08
2023-05-12T05:17:29.024Z,10.17
2023-05-12T05:19:40.309Z,7.75
2023-05-12T05:21:19.052Z,8.71
2023-05-12T05:22:50.569Z,8.67
2023-05-12T05:24:42.429Z,9.48
2023-05-12T05:26:13.830Z,10.07
2023-05-12T05:28:03.234Z,11.02
2023-05-12T05:29:35.013Z,11.15
2023-05-12T05:31:06.643Z,11.03
2023-05-12T05:32:39.008Z,10.63
2023-05-12T05:34:10.712Z,9.30
2023-05-12T05:36:20.725Z,11.00
2023-05-12T05:37:52.167Z,13.01
2023-05-12T05:39:23.482Z,11.65
2023-05-12T05:40:54.937Z,11.09
2023-05-12T05:42:42.496Z,12.02
2023-05-12T05:44:16.358Z,11.40
2023-05-12T05:45:47.971Z,9.99
2023-05-12T05:47:19.786Z,12.33
2023-05-12T05:49:04.632Z,10.26
2023-05-12T05:50:36.180Z,10.96
2023-05-12T05:52:08.582Z,10.99
2023-05-12T05:53:40.387Z,10.99
2023-05-12T05:55:11.795Z,10.44
2023-05-12T05:56:43.792Z,10.75
2023-05-12T05:58:15.274Z,11.15
2023-05-12T05:59:58.010Z,11.48
2023-05-12T06:01:34.701Z,11.39
2023-05-12T06:03:06.284Z,10.26
2023-05-12T06:04:37.942Z,9.04
2023-05-12T06:06:13.344Z,10.08
2023-05-12T06:07:49.788Z,10.16
2023-05-12T06:09:22.645Z,8.79
2023-05-12T06:10:55.789Z,8.77
2023-05-12T06:12:27.316Z,9.26
2023-05-12T06:14:13.653Z,9.48
2023-05-12T06:15:44.993Z,11.13
2023-05-12T06:17:16.395Z,9.03
2023-05-12T06:18:52.746Z,10.02
2023-05-12T06:20:24.319Z,11.09
2023-05-12T06:21:55.815Z,9.97
2023-05-12T06:23:33.232Z,9.55
2023-05-12T06:25:04.533Z,10.13
2023-05-12T06:26:35.855Z,9.19
2023-05-12T06:28:07.297Z,11.12
2023-05-12T06:29:38.602Z,9.94
2023-05-12T06:31:09.906Z,10.55
2023-05-12T06:32:41.330Z,9.28
2023-05-12T06:34:12.948Z,8.28
2023-05-12T06:35:44.545Z,9.45
2023-05-12T06:37:15.878Z,8.57
2023-05-12T06:38:47.206Z,9.00
2023-05-12T06:40:18.600Z,7.80
2023-05-12T06:41:55.631Z,7.75
2023-05-12T06:43:27.041Z,8.93
2023-05-12T06:44:58.374Z,8.12
2023-05-12T06:46:29.989Z,6.99
2023-05-12T06:48:01.500Z,6.41
2023-05-12T06:49:33.050Z,7.78
2023-05-12T06:51:04.398Z,7.84
2023-05-12T06:52:35.788Z,8.46
2023-05-12T06:54:09.168Z,7.97
2023-05-12T06:55:41.308Z,8.40
2023-05-12T06:57:12.585Z,7.80
2023-05-12T06:58:44.224Z,6.99
2023-05-12T07:00:15.747Z,8.98
2023-05-12T07:01:52.414Z,7.22
2023-05-12T07:03:29.984Z,7.79
2023-05-12T07:05:01.426Z,6.94
2023-05-12T07:06:32.806Z,7.61
2023-05-12T07:08:04.164Z,8.16
2023-05-12T07:09:35.836Z,6.69
2023-05-12T07:11:07.400Z,9.64
2023-05-12T07:12:49.975Z,9.01
2023-05-12T07:14:21.278Z,8.59
2023-05-12T07:16:03.749Z,9.49
2023-05-12T07:17:45.430Z,7.90
2023-05-12T07:19:16.752Z,7.76
2023-05-12T07:20:48.052Z,6.89
2023-05-12T07:22:19.492Z,9.35
2023-05-12T07:24:17.399Z,7.91
2023-05-12T07:26:13.841Z,8.41
2023-05-12T07:27:50.187Z,7.35
2023-05-12T07:29:21.496Z,10.10
2023-05-12T07:30:52.986Z,10.03
2023-05-12T07:32:24.477Z,8.56
2023-05-12T07:33:56.006Z,8.29
2023-05-12T07:35:27.496Z,6.62
2023-05-12T07:36:58.814Z,7.92
2023-05-12T07:38:30.214Z,8.55
2023-05-12T07:40:01.561Z,7.88
2023-05-12T07:41:34.421Z,7.31
2023-05-12T07:43:06.071Z,7.52
2023-05-12T07:44:37.660Z,7.99
2023-05-12T07:46:09.334Z,7.55
2023-05-12T07:47:40.679Z,6.62
2023-05-12T07:49:12.209Z,8.45
2023-05-12T07:50:43.610Z,7.79
2023-05-12T07:52:14.931Z,7.34
2023-05-12T07:53:46.361Z,7.85
2023-05-12T07:55:17.788Z,7.01
2023-05-12T07:56:49.212Z,8.28
2023-05-12T07:58:20.615Z,7.80
2023-05-12T07:59:51.933Z,9.03
2023-05-12T08:01:23.260Z,7.59
2023-05-12T08:02:56.070Z,7.11
2023-05-12T08:04:27.903Z,7.35
2023-05-12T08:05:59.474Z,7.04
2023-05-12T08:07:30.974Z,8.59
2023-05-12T08:09:02.330Z,7.77
2023-05-12T08:10:33.661Z,8.07
2023-05-12T08:12:05.250Z,8.59
2023-05-12T08:13:36.632Z,6.84
2023-05-12T08:15:07.957Z,5.57
2023-05-12T08:16:39.785Z,8.43
2023-05-12T08:18:11.344Z,6.20
2023-05-12T08:19:47.839Z,5.67
2023-05-12T08:21:19.346Z,6.82
2023-05-12T08:22:50.797Z,5.96
2023-05-12T08:24:22.277Z,6.27
2023-05-12T08:25:53.684Z,7.76
2023-05-12T08:27:25.022Z,5.49
2023-05-12T08:28:56.520Z,7.26
2023-05-12T08:30:27.936Z,7.92
2023-05-12T08:31:59.418Z,7.91
2023-05-12T08:33:31.018Z,7.03
2023-05-12T08:35:02.399Z,6.43
2023-05-12T08:36:33.785Z,6.36
2023-05-12T08:38:05.222Z,5.83
2023-05-12T08:39:36.568Z,7.55
2023-05-12T08:41:07.932Z,5.80
2023-05-12T08:42:41.575Z,6.96
2023-05-12T08:44:13.132Z,6.22
2023-05-12T08:45:44.610Z,5.41
2023-05-12T08:47:15.938Z,5.47
2023-05-12T08:48:47.340Z,4.98
2023-05-12T08:50:19.105Z,6.32
2023-05-12T08:51:57.672Z,6.58
2023-05-12T08:53:29.815Z,6.08
2023-05-12T08:58:09.496Z,4.72
2023-05-12T08:59:41.170Z,5.08
2023-05-12T09:01:12.732Z,6.66
2023-05-12T09:02:52.717Z,5.67
2023-05-12T09:04:25.137Z,4.42
2023-05-12T09:05:56.695Z,6.13
2023-05-12T09:07:28.165Z,5.14
2023-05-12T09:08:59.711Z,4.06
2023-05-12T09:10:35.101Z,5.66
2023-05-12T09:12:07.276Z,6.11
2023-05-12T09:13:38.674Z,4.58
2023-05-12T09:15:10.063Z,6.04
2023-05-12T09:16:41.657Z,6.33
2023-05-12T09:18:13.089Z,6.29
2023-05-12T09:19:44.487Z,5.15
2023-05-12T09:21:15.908Z,4.79
2023-05-12T09:22:47.408Z,6.33
2023-05-12T09:24:19.164Z,5.30
2023-05-12T09:25:50.713Z,5.71
2023-05-12T09:27:22.074Z,6.97
2023-05-12T09:28:53.487Z,5.45
2023-05-12T09:30:25.028Z,5.86
2023-05-12T09:31:56.436Z,5.72
2023-05-12T09:33:28.021Z,6.14
2023-05-12T09:34:59.511Z,6.16
2023-05-12T09:36:30.965Z,6.70
2023-05-12T09:38:02.315Z,5.22
2023-05-12T09:39:33.791Z,7.49
2023-05-12T09:41:05.259Z,5.76
2023-05-12T09:42:36.729Z,7.89
2023-05-12T09:44:08.177Z,6.55
2023-05-12T09:45:40.692Z,7.13
2023-05-12T09:47:12.349Z,6.33
2023-05-12T09:48:48.730Z,5.98
2023-05-12T09:50:20.204Z,4.97
2023-05-12T09:51:51.623Z,6.12
2023-05-12T09:53:23.103Z,5.34
2023-05-12T09:54:54.525Z,4.12
2023-05-12T09:56:25.906Z,4.99
2023-05-12T09:57:57.335Z,4.88
2023-05-12T09:59:28.963Z,4.83
2023-05-12T10:01:18.279Z,4.93
2023-05-12T10:02:53.017Z,6.76
2023-05-12T10:04:24.743Z,5.80
2023-05-12T10:05:56.452Z,4.56
2023-05-12T10:07:27.917Z,5.33
2023-05-12T10:09:04.506Z,6.61
2023-05-12T10:10:35.913Z,6.09
2023-05-12T10:12:07.476Z,6.96
2023-05-12T10:13:38.931Z,6.32
2023-05-12T10:15:10.589Z,6.37
2023-05-12T10:16:42.154Z,6.60
2023-05-12T10:18:13.633Z,5.20
2023-05-12T10:19:45.196Z,6.20
2023-05-12T10:21:16.808Z,6.32
2023-05-12T10:22:48.494Z,6.13
2023-05-12T10:24:19.953Z,5.70
2023-05-12T10:25:51.431Z,6.34
2023-05-12T10:27:23.041Z,6.90
2023-05-12T10:28:54.890Z,5.89
2023-05-12T10:30:26.498Z,4.32
2023-05-12T10:31:58.219Z,5.07
2023-05-12T10:33:29.779Z,5.71
2023-05-12T10:35:01.220Z,5.68
2023-05-12T10:36:32.736Z,6.09
2023-05-12T10:38:04.300Z,4.42
2023-05-12T10:39:48.504Z,7.27
2023-05-12T10:41:20.618Z,6.51
2023-05-12T10:42:53.736Z,5.90
2023-05-12T10:44:25.424Z,5.94
2023-05-12T10:45:57.047Z,6.44
2023-05-12T10:47:28.505Z,5.01
2023-05-12T10:49:00.247Z,5.60
2023-05-12T10:50:31.647Z,7.26
2023-05-12T10:52:03.233Z,6.96
2023-05-12T10:53:47.790Z,5.32
2023-05-12T10:55:40.640Z,5.04
2023-05-12T10:57:15.015Z,4.94
2023-05-12T10:58:49.655Z,5.82
2023-05-12T11:00:21.932Z,6.20
2023-05-12T11:01:54.230Z,6.60
2023-05-12T11:03:27.554Z,6.47
2023-05-12T11:05:00.229Z,7.15
2023-05-12T11:06:32.642Z,4.74
2023-05-12T11:08:05.107Z,4.49
2023-05-12T11:09:40.704Z,6.18
2023-05-12T11:11:20.050Z,5.96
2023-05-12T11:12:52.136Z,5.52
2023-05-12T11:14:23.657Z,5.70
2023-05-12T11:15:55.349Z,7.72
2023-05-12T11:17:27.152Z,6.71
2023-05-12T11:18:58.837Z,5.38
2023-05-12T11:20:31.171Z,5.06
2023-05-12T11:22:02.821Z,6.15
2023-05-12T11:23:35.154Z,5.19
2023-05-12T11:25:07.522Z,5.63
2023-05-12T11:26:39.124Z,7.66
2023-05-12T11:28:10.889Z,5.56
2023-05-12T11:29:42.676Z,5.91
2023-05-12T11:31:14.310Z,6.15
2023-05-12T11:32:46.419Z,7.07
2023-05-12T11:34:17.935Z,6.05
2023-05-12T11:35:49.360Z,7.62
2023-05-12T11:37:21.045Z,4.91
2023-05-12T11:38:52.816Z,4.46
2023-05-12T11:40:24.210Z,7.09
2023-05-12T11:42:02.339Z,5.51
2023-05-12T11:43:41.000Z,8.55
2023-05-12T11:45:12.608Z,6.49
2023-05-12T11:46:44.124Z,5.52
2023-05-12T11:48:15.821Z,4.93
2023-05-12T11:49:48.260Z,7.64
2023-05-12T11:51:19.933Z,4.81
2023-05-12T11:52:51.365Z,5.94
2023-05-12T11:54:24.009Z,7.02
2023-05-12T11:55:55.587Z,7.12
2023-05-12T11:57:27.075Z,4.02
2023-05-12T11:59:17.598Z,5.40
2023-05-12T12:00:49.458Z,4.32
2023-05-12T12:02:21.020Z,4.88
2023-05-12T12:03:52.870Z,5.02
2023-05-12T12:05:24.367Z,5.86
2023-05-12T12:06:55.819Z,5.15
2023-05-12T12:08:27.425Z,4.89
2023-05-12T12:09:59.157Z,4.86
2023-05-12T12:11:30.653Z,5.09
2023-05-12T12:13:02.164Z,3.98
2023-05-12T12:14:47.693Z,5.30
2023-05-12T12:16:19.426Z,4.23
2023-05-12T12:17:50.943Z,4.06
2023-05-12T12:19:49.362Z,6.06
2023-05-12T12:21:25.932Z,5.99
2023-05-12T12:22:57.471Z,3.74
2023-05-12T12:24:28.963Z,4.24
2023-05-12T12:26:00.564Z,4.05
2023-05-12T12:27:32.064Z,6.14
2023-05-12T12:29:03.532Z,4.80
2023-05-12T12:30:50.355Z,4.76
2023-05-12T12:32:21.887Z,6.16
2023-05-12T12:33:53.381Z,3.76
2023-05-12T12:35:25.793Z,6.61
2023-05-12T12:36:57.264Z,3.79
2023-05-12T12:38:28.686Z,3.93
2023-05-12T12:40:00.152Z,4.27
2023-05-12T12:41:31.767Z,3.97
2023-05-12T12:43:03.218Z,3.93
2023-05-12T12:44:34.856Z,4.86
2023-05-12T12:46:06.381Z,4.83
2023-05-12T12:47:37.902Z,5.32
2023-05-12T12:49:09.547Z,4.02
2023-05-12T12:50:41.022Z,4.99
2023-05-12T12:52:12.550Z,4.85
2023-05-12T12:53:44.042Z,3.63
2023-05-12T12:55:15.821Z,3.82
2023-05-12T12:56:47.496Z,3.90
2023-05-12T12:58:19.422Z,5.52
2023-05-12T13:00:49.698Z,6.62
2023-05-12T13:02:21.398Z,4.89
2023-05-12T13:03:52.928Z,3.98
2023-05-12T13:05:24.434Z,5.60
2023-05-12T13:06:56.079Z,3.75
2023-05-12T13:08:27.580Z,4.42
2023-05-12T13:09:59.102Z,3.91
2023-05-12T13:11:30.798Z,4.48
2023-05-12T13:13:02.225Z,5.32
2023-05-12T13:14:33.721Z,5.87
2023-05-12T13:16:05.352Z,4.18
2023-05-12T13:17:36.931Z,6.96
2023-05-12T13:19:08.563Z,6.12
2023-05-12T13:20:40.142Z,4.76
2023-05-12T13:22:11.633Z,5.14
2023-05-12T13:23:43.304Z,4.91
2023-05-12T13:25:14.873Z,4.28
2023-05-12T13:26:46.470Z,4.78
2023-05-12T13:28:18.506Z,6.03
2023-05-12T13:29:50.016Z,6.61
2023-05-12T13:31:21.854Z,4.28
2023-05-12T13:32:53.490Z,7.30
2023-05-12T13:34:25.227Z,5.24
2023-05-12T13:35:56.679Z,6.10
2023-05-12T13:37:28.105Z,5.74
2023-05-12T13:38:59.650Z,5.26
2023-05-12T13:40:32.116Z,6.48
2023-05-12T13:42:03.821Z,7.22
2023-05-12T13:43:35.502Z,5.64
2023-05-12T13:45:06.910Z,7.69
2023-05-12T13:46:38.382Z,4.46
2023-05-12T13:48:09.815Z,5.93
2023-05-12T13:49:41.506Z,6.48
2023-05-12T13:51:13.122Z,5.75
2023-05-12T13:52:44.788Z,4.47
2023-05-12T13:54:16.397Z,7.61
2023-05-12T13:55:47.957Z,6.07
2023-05-12T13:57:19.610Z,6.00
2023-05-12T13:58:51.147Z,6.59
2023-05-12T14:00:22.598Z,5.46
2023-05-12T14:01:54.431Z,6.63
2023-05-12T14:03:26.075Z,4.61
2023-05-12T14:04:57.742Z,5.35
2023-05-12T14:06:29.559Z,5.55
2023-05-12T14:08:01.237Z,6.61
2023-05-12T14:09:32.743Z,5.76
2023-05-12T14:11:04.163Z,8.24
2023-05-12T14:12:35.662Z,5.33
2023-05-12T14:14:07.142Z,6.12
2023-05-12T14:15:48.104Z,13.67
2023-05-12T14:17:21.284Z,19.37
2023-05-12T14:18:52.850Z,16.53
2023-05-12T14:20:24.392Z,14.16
2023-05-12T14:21:55.889Z,13.98
2023-05-12T14:23:27.463Z,7.13
2023-05-12T14:24:59.028Z,6.39
2023-05-12T14:26:35.537Z,4.46
2023-05-12T14:28:07.143Z,3.72
2023-05-12T14:29:38.813Z,6.11
2023-05-12T14:31:10.387Z,5.52
2023-05-12T14:32:42.421Z,3.99
2023-05-12T14:34:13.895Z,4.46
2023-05-12T14:35:52.791Z,5.20
2023-05-12T14:37:31.470Z,6.66
2023-05-12T14:39:03.179Z,5.94
2023-05-12T14:40:34.846Z,6.61
2023-05-12T14:42:06.536Z,5.51
2023-05-12T14:43:38.317Z,7.72
2023-05-12T14:45:11.498Z,4.98
2023-05-12T14:46:42.971Z,6.00
2023-05-12T14:48:14.425Z,6.26
2023-05-12T14:49:46.164Z,7.20
2023-05-12T14:51:22.884Z,7.97
2023-05-12T14:52:54.533Z,5.67
2023-05-12T14:54:26.270Z,3.53
2023-05-12T14:55:57.985Z,5.64
2023-05-12T14:57:29.477Z,8.22
2023-05-12T14:59:00.943Z,5.36
2023-05-12T15:00:32.845Z,5.69
2023-05-12T15:02:04.567Z,5.08
2023-05-12T15:03:36.216Z,5.84
2023-05-12T15:05:07.688Z,5.85
2023-05-12T15:06:39.517Z,5.41
2023-05-12T15:08:11.235Z,4.96
2023-05-12T15:09:42.743Z,4.73
2023-05-12T15:11:24.311Z,6.13
2023-05-12T15:13:14.606Z,6.81
2023-05-12T15:14:46.658Z,7.68
2023-05-12T15:16:27.097Z,5.02
2023-05-12T15:18:23.381Z,4.49
2023-05-12T15:19:55.134Z,4.37
2023-05-12T15:21:41.959Z,5.97
2023-05-12T15:23:41.266Z,4.93
2023-05-12T15:25:37.991Z,4.22
2023-05-12T15:27:09.482Z,3.97
2023-05-12T15:28:41.195Z,3.76
2023-05-12T15:30:14.142Z,5.09
2023-05-12T15:31:45.718Z,7.66
2023-05-12T15:33:17.439Z,5.09
2023-05-12T15:35:05.314Z,5.27
2023-05-12T15:36:36.994Z,7.00
2023-05-12T15:38:08.568Z,5.59
2023-05-12T15:39:40.346Z,4.43
2023-05-12T15:41:11.800Z,4.87
2023-05-12T15:42:43.378Z,6.04
2023-05-12T15:44:14.955Z,4.15
2023-05-12T15:45:46.639Z,5.89
2023-05-12T15:47:18.126Z,5.36
2023-05-12T15:48:49.809Z,4.01
2023-05-12T15:50:21.323Z,5.94
2023-05-12T15:52:03.229Z,6.39
2023-05-12T15:54:10.945Z,6.00
2023-05-12T15:56:09.760Z,5.60
2023-05-12T15:57:41.232Z,5.85
2023-05-12T15:59:22.632Z,6.59
2023-05-12T16:00:54.367Z,6.15
2023-05-12T16:02:26.018Z,7.22
2023-05-12T16:03:57.731Z,7.14
2023-05-12T16:05:29.420Z,5.11
2023-05-12T16:07:06.260Z,5.58
2023-05-12T16:08:37.749Z,6.91
2023-05-12T16:10:09.198Z,4.78
2023-05-12T16:11:40.672Z,4.99
2023-05-12T16:13:12.163Z,5.20
2023-05-12T16:14:43.895Z,6.20
2023-05-12T16:16:26.927Z,5.95
2023-05-12T16:17:58.606Z,6.62
2023-05-12T16:19:30.541Z,6.47
2023-05-12T16:21:02.127Z,6.26
2023-05-12T16:23:00.995Z,6.51
2023-05-12T16:24:52.595Z,5.47
2023-05-12T16:26:39.821Z,8.09
2023-05-12T16:28:47.250Z,6.70
2023-05-12T16:30:26.707Z,7.03
2023-05-12T16:32:18.847Z,5.84
2023-05-12T16:34:10.315Z,4.52
2023-05-12T16:35:41.814Z,6.13
2023-05-12T16:37:13.817Z,4.93
2023-05-12T16:38:45.720Z,6.37
2023-05-12T16:40:17.157Z,5.27
2023-05-12T16:41:48.611Z,5.07
2023-05-12T16:43:20.100Z,5.77
2023-05-12T16:44:51.663Z,5.69
2023-05-12T16:46:23.232Z,6.22
2023-05-12T16:47:55.421Z,6.35
2023-05-12T16:49:27.092Z,5.47
2023-05-12T16:50:58.515Z,8.14
2023-05-12T16:52:30.210Z,6.32
2023-05-12T16:54:02.795Z,6.36
2023-05-12T16:55:34.314Z,6.06
2023-05-12T16:57:05.773Z,4.95
2023-05-12T16:58:48.768Z,5.10
2023-05-12T17:00:25.366Z,6.23
2023-05-12T17:01:56.947Z,4.51
2023-05-12T17:03:40.595Z,6.84
2023-05-12T17:05:12.189Z,7.14
2023-05-12T17:07:09.143Z,6.93
2023-05-12T17:08:45.952Z,11.74
2023-05-12T17:10:19.632Z,7.28
2023-05-12T17:11:51.231Z,5.51
2023-05-12T17:13:22.745Z,5.84
2023-05-12T17:15:06.310Z,7.26
2023-05-12T17:16:38.841Z,7.82
2023-05-12T17:18:10.317Z,5.80
2023-05-12T17:20:10.865Z,5.65
2023-05-12T17:21:42.646Z,8.97
2023-05-12T17:23:24.044Z,6.77
2023-05-12T17:25:12.839Z,6.04
2023-05-12T17:26:44.386Z,6.09
2023-05-12T17:28:21.087Z,6.47
2023-05-12T17:29:52.650Z,6.19
2023-05-12T17:31:24.082Z,6.72
2023-05-12T17:32:56.304Z,7.12
2023-05-12T17:34:27.964Z,8.82
2023-05-12T17:36:13.229Z,8.38
2023-05-12T17:38:41.969Z,7.29
2023-05-12T17:40:13.464Z,6.29
2023-05-12T17:41:52.415Z,7.14
2023-05-12T17:43:23.977Z,7.87
2023-05-12T17:44:56.477Z,8.51
2023-05-12T17:46:28.269Z,6.44
2023-05-12T17:48:00.028Z,8.28
2023-05-12T17:49:31.997Z,7.95
2023-05-12T17:51:03.763Z,7.45
2023-05-12T17:52:55.355Z,6.63
2023-05-12T17:54:27.062Z,8.16
2023-05-12T17:56:10.330Z,6.96
2023-05-12T17:57:41.839Z,7.95
2023-05-12T17:59:39.162Z,9.64
2023-05-12T18:01:15.601Z,7.12
2023-05-12T18:02:47.876Z,9.38
2023-05-12T18:04:22.493Z,9.22
2023-05-12T18:05:55.093Z,10.40
2023-05-12T18:07:26.612Z,9.51
2023-05-12T18:09:03.530Z,9.41
2023-05-12T18:10:35.170Z,10.32
2023-05-12T18:13:02.193Z,12.03
2023-05-12T18:16:44.982Z,8.09
2023-05-12T18:18:16.602Z,7.53
2023-05-12T18:19:53.294Z,7.88
2023-05-12T18:21:56.221Z,8.34
2023-05-12T18:23:32.969Z,6.69
2023-05-12T18:25:04.355Z,5.68
2023-05-12T18:26:36.181Z,6.91
2023-05-12T18:28:08.158Z,6.01
2023-05-12T18:29:39.643Z,8.59
2023-05-12T18:31:34.910Z,8.89
2023-05-12T18:33:35.169Z,8.07
2023-05-12T18:35:07.116Z,8.10
2023-05-12T18:36:38.666Z,6.96
2023-05-12T18:38:15.645Z,6.80
2023-05-12T18:39:47.160Z,8.39
2023-05-12T18:41:32.729Z,7.74
2023-05-12T18:43:04.513Z,6.73
2023-05-12T18:44:36.286Z,7.28
2023-05-12T18:46:08.096Z,7.36
2023-05-12T18:47:39.925Z,7.01
2023-05-12T18:49:12.041Z,8.45
2023-05-12T18:50:44.090Z,7.84
2023-05-12T18:52:15.619Z,7.35
2023-05-12T18:53:47.429Z,8.86
2023-05-12T18:55:19.026Z,9.01
2023-05-12T18:56:50.787Z,9.36
2023-05-12T18:58:22.316Z,8.40
2023-05-12T18:59:59.139Z,7.72
2023-05-12T19:01:30.987Z,7.63
2023-05-12T19:03:03.296Z,6.91
2023-05-12T19:05:01.376Z,8.51
2023-05-12T19:06:34.189Z,7.99
2023-05-12T19:08:14.033Z,8.55
2023-05-12T19:09:45.500Z,8.93
2023-05-12T19:11:17.056Z,9.13
2023-05-12T19:12:58.729Z,8.95
2023-05-12T19:14:30.367Z,8.91
2023-05-12T19:16:02.285Z,8.84
2023-05-12T19:17:33.956Z,8.18
2023-05-12T19:19:05.793Z,7.49
2023-05-12T19:20:37.449Z,8.00
2023-05-12T19:22:09.294Z,8.45
2023-05-12T19:24:32.173Z,8.88
2023-05-12T19:26:03.710Z,8.29
2023-05-12T19:27:35.286Z,8.22
2023-05-12T19:29:33.966Z,9.86
2023-05-12T19:31:05.683Z,11.24
2023-05-12T19:32:37.418Z,9.49
2023-05-12T19:34:29.032Z,8.12
2023-05-12T19:36:05.782Z,8.90
2023-05-12T19:37:37.724Z,10.90
2023-05-12T19:39:19.489Z,8.30
2023-05-12T19:40:50.918Z,8.61
2023-05-12T19:42:27.504Z,9.98
2023-05-12T19:43:59.306Z,9.59
2023-05-12T19:45:41.370Z,10.39
2023-05-12T19:47:12.849Z,7.29
2023-05-12T19:48:44.530Z,8.95
2023-05-12T19:50:15.981Z,10.65
2023-05-12T19:51:47.767Z,9.16
2023-05-12T19:53:19.421Z,10.78
2023-05-12T19:54:50.900Z,9.52
2023-05-12T19:56:22.537Z,10.21
2023-05-12T19:57:53.914Z,10.28
2023-05-12T19:59:25.264Z,9.95
2023-05-12T20:00:56.860Z,10.84
2023-05-12T20:02:47.139Z,9.42
2023-05-12T20:04:18.667Z,10.99
2023-05-12T20:05:50.674Z,10.29
2023-05-12T20:07:22.345Z,11.01
2023-05-12T20:08:53.972Z,11.02
2023-05-12T20:10:34.709Z,12.11
2023-05-12T20:12:20.314Z,10.70
2023-05-12T20:13:51.715Z,11.95
2023-05-12T20:15:34.488Z,13.21
2023-05-12T20:17:11.117Z,12.48
2023-05-12T20:18:42.682Z,10.19
2023-05-12T20:20:14.270Z,12.97
2023-05-12T20:21:45.948Z,10.90
2023-05-12T20:23:17.388Z,11.54
2023-05-12T20:25:03.578Z,11.09
2023-05-12T20:26:34.990Z,12.55
2023-05-12T20:28:06.473Z,10.14
2023-05-12T20:29:37.862Z,10.26
2023-05-12T20:31:24.503Z,13.49
2023-05-12T20:33:05.496Z,11.06
2023-05-12T20:34:36.981Z,11.13
2023-05-12T20:36:08.333Z,10.14
2023-05-12T20:37:39.690Z,10.57
2023-05-12T20:39:11.014Z,11.95
2023-05-12T20:40:42.555Z,13.30
2023-05-12T20:42:13.938Z,10.19
2023-05-12T20:43:45.302Z,10.37
2023-05-12T20:46:00.807Z,11.22
2023-05-12T20:47:33.889Z,13.73